• Join FlightAware (Why Join?)
  • Login
  • US Flag 
10:02AM EDT


 

Airport Tracker/Info


-or-


 

Live Flight TrackerFlight Track Log ✈ AAL1054 ✈ 05-Aug-2013 ✈ KTUS - KDFW

Flight Track Log - Related Links

Times and Time Zones

All times are in EDT time to prevent confusion due to time zone crossing. See the AAL1054 flight status page for this flight to view local times or setup timezone preferences in your user account.

Time Position Orientation Groundspeed Altitude Reporting Facility
EDT Latitude Longitude Course Direction KTS MPH feet Rate Location/Type
04:36PM 32.0983 -110.9211 67° East 181 208 3,100  Level Albuquerque Center
04:36PM 32.0753 -110.8897 131° Southeast 191 220 4,400 1,860 Climbing Albuquerque Center
04:37PM 32.0311 -110.8286 130° Southeast 254 292 6,300 2,520 Climbing Albuquerque Center
04:38PM 32.1580 -110.5614 118° Southeast  Level Estimated
04:38PM 32.0122 -110.7331 103° East 286 329 9,600  Level Albuquerque Center
04:39PM 32.1718 -110.4348 125° Southeast  Level Estimated
04:40PM 32.1854 -110.3082 90° East  Level Estimated
04:40PM 32.0122 -110.5892 90° East 318 366 12,300  Level Albuquerque Center
04:41PM 32.1989 -110.1815 67° East  Level Estimated
04:41PM 32.0144 -110.4681 89° East 359 413 14,900  Level Albuquerque Center
04:42PM 32.0144 -110.3419 90° East 379 436 17,400 2,160 Climbing Albuquerque Center
04:43PM 32.0086 -110.2075 93° East 406 467 19,400 2,220 Climbing Albuquerque Center
04:44PM 32.0122 -110.0453 88° East 414 476 22,000 2,100 Climbing Albuquerque Center
04:45PM 32.0122 -109.9058 90° East 423 487 23,800 1,560 Climbing Albuquerque Center
04:46PM 32.0003 -109.7642 96° East 436 502 25,300 1,560 Climbing Albuquerque Center
04:47PM 31.9756 -109.6206 101° East 445 512 27,000 1,560 Climbing Albuquerque Center
04:48PM 31.9519 -109.4792 101° East 445 512 28,600 1,560 Climbing Albuquerque Center
04:49PM 31.9261 -109.3367 102° East 447 514 30,300 1,680 Climbing Albuquerque Center
04:50PM 31.8992 -109.1675 101° East 445 512 32,100 1,440 Climbing Albuquerque Center
04:51PM 31.9017 -109.0269 89° East 438 504 33,300 1,020 Climbing Albuquerque Center
04:52PM 31.9044 -108.8858 89° East 435 501 34,300 780 Climbing Albuquerque Center
04:53PM 31.9061 -108.7444 89° East 434 499 35,000 300 Climbing Albuquerque Center
04:54PM 31.9089 -108.6050 89° East 432 497 35,000  Level Albuquerque Center
04:55PM 31.9103 -108.4664 89° East 429 494 35,000  Level Albuquerque Center
04:56PM 31.9136 -108.2972 89° East 431 496 35,000  Level Albuquerque Center
04:57PM 31.9153 -108.1564 89° East 432 497 35,000 -60 Level Albuquerque Center
04:58PM 31.9169 -108.0192 89° East 436 502 34,900  Descending Albuquerque Center
04:59PM 31.9178 -107.8769 90° East 436 502 35,000  Climbing Albuquerque Center
05:00PM 31.9186 -107.7364 90° East 435 501 35,000 -60 Level Albuquerque Center
05:01PM 31.9206 -107.5672 89° East 434 499 34,900  Descending Albuquerque Center
05:02PM 31.9206 -107.4256 90° East 436 502 35,000  Climbing Albuquerque Center
05:04PM 31.9222 -107.2856 89° East 433 498 34,900  Descending Albuquerque Center
05:05PM 31.9236 -107.1450 89° East 433 498 35,000  Climbing Albuquerque Center
05:06PM 31.9242 -107.0036 90° East 434 499 35,000 -60 Level Albuquerque Center
05:07PM 31.9242 -106.8639 90° East 433 498 34,900  Descending Albuquerque Center
05:08PM 31.9250 -106.6994 90° East 425 489 35,000  Climbing Albuquerque Center
05:09PM 31.9250 -106.5583 90° East 431 496 35,000  Level Albuquerque Center
05:10PM 31.9264 -106.4203 89° East 426 490 35,000  Level Albuquerque Center
05:11PM 31.9278 -106.2769 89° East 443 510 35,000  Level Albuquerque Center
05:12PM 31.9267 -106.1311 90° East 436 502 35,000 -60 Level Albuquerque Center
05:13PM 31.9244 -105.9939 91° East 433 498 34,900 -60 Descending Albuquerque Center
05:14PM 31.9222 -105.8492 91° East 428 493 34,900  Level Albuquerque Center
05:15PM 31.9208 -105.7089 91° East 429 494 35,000  Climbing Albuquerque Center
05:16PM 31.9200 -105.5403 90° East 429 494 34,900  Descending Albuquerque Center
05:17PM 31.9183 -105.3989 91° East 430 495 35,000  Climbing Albuquerque Center
05:18PM 31.9178 -105.2597 90° East 427 491 34,900  Descending Albuquerque Center
05:19PM 31.9264 -105.1172 86° East 430 495 35,000  Climbing Albuquerque Center
05:20PM 31.9392 -104.9758 84° East 432 497 34,900  Descending Albuquerque Center
05:21PM 31.9486 -104.8350 85° East 432 497 35,000  Climbing Albuquerque Center
05:22PM 31.9603 -104.6939 84° East 432 497 35,000 -60 Level Albuquerque Center
05:23PM 31.9708 -104.5511 85° East 436 502 34,900 -60 Descending Albuquerque Center
05:24PM 31.9839 -104.3803 85° East 436 502 34,900  Level Albuquerque Center
05:25PM 31.9939 -104.2378 85° East 436 502 35,000  Climbing Albuquerque Center
05:26PM 32.0047 -104.0950 85° East 438 504 34,900  Descending Albuquerque Center
05:27PM 32.0147 -103.9494 85° East 434 499 35,000  Climbing Albuquerque Center
05:28PM 32.0247 -103.8092 85° East 433 498 35,000  Level Albuquerque Center
05:29PM 32.0333 -103.6683 86° East 431 496 35,000  Level Albuquerque Center
05:30PM 32.0425 -103.5264 86° East 435 501 35,000  Level Albuquerque Center
05:31PM 32.0531 -103.3856 85° East 434 499 35,000  Level Albuquerque Center
05:32PM 32.0631 -103.2178 86° East 430 495 35,000  Level Albuquerque Center
05:33PM 32.0672 -103.1150 87° East 435 501 35,000  Level Fort Worth Center
05:34PM 32.0775 -102.9761 85° East 435 501 35,000  Level Fort Worth Center
05:35PM 32.0881 -102.8344 85° East 428 493 35,000 -60 Level Fort Worth Center
05:36PM 32.0961 -102.6928 86° East 428 493 34,900  Descending Fort Worth Center
05:37PM 32.1061 -102.5536 85° East 428 493 35,000  Climbing Fort Worth Center
05:38PM 32.1128 -102.4411 86° East 428 493 35,000  Level Fort Worth Center
05:39PM 32.1208 -102.2869 86° East 423 487 35,000  Level Fort Worth Center
05:40PM 32.1303 -102.1453 85° East 423 487 35,000  Level Fort Worth Center
05:41PM 32.1397 -102.0036 85° East 423 487 35,000  Level Fort Worth Center
05:42PM 32.1450 -101.8614 87° East 423 487 35,000  Level Fort Worth Center
05:43PM 32.1539 -101.7244 86° East 423 487 35,000 -60 Level Fort Worth Center
05:44PM 32.1589 -101.5800 88° East 423 487 34,900  Descending Fort Worth Center
05:45PM 32.1639 -101.4233 88° East 431 496 35,000  Climbing Fort Worth Center
05:46PM 32.1703 -101.2836 87° East 431 496 35,000  Level Fort Worth Center
05:47PM 32.1761 -101.1589 87° East 425 489 35,000  Level Fort Worth Center
05:48PM 32.1825 -101.0142 87° East 425 489 35,000  Level Fort Worth Center
05:49PM 32.1886 -100.8744 87° East 425 489 35,000  Level Fort Worth Center
05:50PM 32.1944 -100.7300 87° East 425 489 35,000  Level Fort Worth Center
05:51PM 32.2022 -100.5928 86° East 425 489 35,000  Level Fort Worth Center
05:52PM 32.2058 -100.4481 88° East 425 489 35,000  Level Fort Worth Center
05:53PM 32.2133 -100.3083 86° East 425 489 35,000  Level Fort Worth Center
05:54PM 32.2186 -100.1636 87° East 425 489 35,000  Level Fort Worth Center
05:55PM 32.2217 -100.0189 89° East 425 489 35,000  Level Fort Worth Center
05:56PM 32.2289 -99.8767 87° East 425 489 35,000  Level Fort Worth Center
05:57PM 32.2294 -99.7342 90° East 425 489 35,000 -300 Level Fort Worth Center
05:58PM 32.2239 -99.5719 92° East 443 510 34,400 -840 Descending Fort Worth Center
05:59PM 32.2200 -99.4269 92° East 443 510 33,400 -1,020 Descending Fort Worth Center
06:00PM 32.2142 -99.2794 93° East 443 510 32,400 -960 Descending Fort Worth Center
06:01PM 32.2078 -99.1322 93° East 443 510 31,500 -960 Descending Fort Worth Center
06:02PM 32.2033 -98.9847 92° East 443 510 30,500 -1,200 Descending Fort Worth Center
06:03PM 32.1969 -98.8372 93° East 443 510 29,200 -1,500 Descending Fort Worth Center
06:04PM 32.1922 -98.6950 92° East 438 504 27,600 -1,800 Descending Fort Worth Center
06:05PM 32.1872 -98.5525 92° East 438 504 25,600 -1,860 Descending Fort Worth Center
06:06PM 32.1819 -98.4297 93° East 432 497 23,900 -1,860 Descending Fort Worth Center
06:07PM 32.1789 -98.2994 92° East 416 479 21,900 -1,920 Descending Fort Worth Center
06:08PM 32.2006 -98.1694 79° East 398 458 20,200 -2,040 Descending Fort Worth Center
06:09PM 32.2369 -98.0372 72° East 388 447 17,900 -1,980 Descending Fort Worth Center
06:10PM 32.2686 -97.9194 72° East 382 440 16,300 -2,040 Descending Fort Worth Center
06:11PM 32.2983 -97.8067 73° East 363 418 13,900 -2,100 Descending Fort Worth Center
06:12PM 32.3300 -97.6936 72° East 358 412 12,100 -1,380 Descending Fort Worth Center
06:13PM 32.3906 -97.6028 52° Northeast 352 405 11,200 -600 Descending Fort Worth Center
06:14PM 32.4556 -97.5217 46° Northeast 342 394 11,000 -60 Descending Fort Worth Center
06:15PM 32.5244 -97.4381 46° Northeast 342 394 11,100  Climbing Fort Worth Center
06:16PM 32.5911 -97.3567 46° Northeast 342 394 11,100 -60 Level Fort Worth Center
06:17PM 32.6600 -97.2753 45° Northeast 342 394 11,000 -60 Descending Fort Worth Center
06:18PM 32.7206 -97.2011 46° Northeast 325 374 11,000  Level Fort Worth Center
06:19PM 32.7767 -97.1664 27° Northeast 290 334 11,100 -420 Climbing Fort Worth Center
06:20PM 32.8497 -97.1661 360° North 247 284 10,200 -1,200 Descending Fort Worth Center
06:21PM 32.9186 -97.1636 North 241 277 8,700 -1,800 Descending Fort Worth Center
06:22PM 32.9981 -97.1633 360° North 241 277 6,600 -1,920 Descending Fort Worth Center
06:23PM 33.0586 -97.1508 10° North 226 260 4,900 -1,680 Descending Fort Worth Center
06:24PM 33.0625 -97.0814 86° East 180 207 3,300 -1,140 Descending Fort Worth Center
06:25PM 33.0103 -97.0567 158° South 138 159 2,700 -900 Descending Fort Worth Center
06:26PM 32.9500 -97.0500 175° South 132 152 1,300 -1,140 Descending Dallas / Fort Worth TRACON